sensor_id;sensor_type;location;lat;lon;timestamp;pressure;altitude;pressure_sealevel;temperature;humidity
50349;BME280;36250;48.740;22.174;2023-01-16T00:00:53;100034.28;;;4.86;82.66
50349;BME280;36250;48.740;22.174;2023-01-16T00:03:19;100030.94;;;4.84;83.70
50349;BME280;36250;48.740;22.174;2023-01-16T00:05:44;100017.44;;;4.84;83.09
50349;BME280;36250;48.740;22.174;2023-01-16T00:08:10;100018.09;;;4.80;83.12
50349;BME280;36250;48.740;22.174;2023-01-16T00:10:35;100011.91;;;4.79;83.20
50349;BME280;36250;48.740;22.174;2023-01-16T00:13:00;100005.69;;;4.79;84.10
50349;BME280;36250;48.740;22.174;2023-01-16T00:15:26;100008.59;;;4.77;83.86
50349;BME280;36250;48.740;22.174;2023-01-16T00:17:51;100006.13;;;4.76;83.46
50349;BME280;36250;48.740;22.174;2023-01-16T00:20:17;100003.19;;;4.77;83.83
50349;BME280;36250;48.740;22.174;2023-01-16T00:22:42;100005.09;;;4.77;83.61
50349;BME280;36250;48.740;22.174;2023-01-16T00:25:08;99997.00;;;4.77;83.88
50349;BME280;36250;48.740;22.174;2023-01-16T00:27:34;99985.16;;;4.78;83.82
50349;BME280;36250;48.740;22.174;2023-01-16T00:29:59;99993.03;;;4.79;84.36
50349;BME280;36250;48.740;22.174;2023-01-16T00:32:25;99985.81;;;4.73;83.87
50349;BME280;36250;48.740;22.174;2023-01-16T00:34:50;99992.03;;;4.74;83.86
50349;BME280;36250;48.740;22.174;2023-01-16T00:37:15;99991.44;;;4.72;84.07
50349;BME280;36250;48.740;22.174;2023-01-16T00:39:41;99983.34;;;4.72;84.29
50349;BME280;36250;48.740;22.174;2023-01-16T00:42:06;99971.72;;;4.71;84.10
50349;BME280;36250;48.740;22.174;2023-01-16T00:44:32;99970.25;;;4.75;84.53
50349;BME280;36250;48.740;22.174;2023-01-16T00:46:57;99970.41;;;4.80;83.67
50349;BME280;36250;48.740;22.174;2023-01-16T00:49:23;99964.34;;;4.85;84.34
50349;BME280;36250;48.740;22.174;2023-01-16T00:51:48;99961.66;;;4.85;84.01
50349;BME280;36250;48.740;22.174;2023-01-16T00:54:13;99963.75;;;4.83;84.37
50349;BME280;36250;48.740;22.174;2023-01-16T00:56:39;99970.41;;;4.80;83.66
50349;BME280;36250;48.740;22.174;2023-01-16T00:59:04;99970.03;;;4.77;83.98
50349;BME280;36250;48.740;22.174;2023-01-16T01:01:29;99962.97;;;4.76;84.30
50349;BME280;36250;48.740;22.174;2023-01-16T01:03:55;99954.47;;;4.79;83.69
50349;BME280;36250;48.740;22.174;2023-01-16T01:06:22;99963.38;;;4.79;83.90
50349;BME280;36250;48.740;22.174;2023-01-16T01:08:47;99963.16;;;4.81;84.27
50349;BME280;36250;48.740;22.174;2023-01-16T01:11:14;99974.97;;;4.80;83.54
50349;BME280;36250;48.740;22.174;2023-01-16T01:13:40;99984.50;;;4.82;83.48
50349;BME280;36250;48.740;22.174;2023-01-16T01:16:06;99982.88;;;4.81;83.86
50349;BME280;36250;48.740;22.174;2023-01-16T01:18:32;99989.50;;;4.79;83.32
50349;BME280;36250;48.740;22.174;2023-01-16T01:20:58;99982.09;;;4.74;83.54
50349;BME280;36250;48.740;22.174;2023-01-16T01:23:24;99973.38;;;4.72;83.21
50349;BME280;36250;48.740;22.174;2023-01-16T01:25:49;99967.97;;;4.72;83.10
50349;BME280;36250;48.740;22.174;2023-01-16T01:28:15;99968.81;;;4.73;83.47
50349;BME280;36250;48.740;22.174;2023-01-16T01:30:41;99965.06;;;4.74;83.43
50349;BME280;36250;48.740;22.174;2023-01-16T01:33:06;99961.78;;;4.72;82.99
50349;BME280;36250;48.740;22.174;2023-01-16T01:35:32;99956.81;;;4.69;83.45
50349;BME280;36250;48.740;22.174;2023-01-16T01:37:57;99946.47;;;4.65;83.45
50349;BME280;36250;48.740;22.174;2023-01-16T01:40:23;99954.31;;;4.67;83.53
50349;BME280;36250;48.740;22.174;2023-01-16T01:42:48;99946.63;;;4.71;83.50
50349;BME280;36250;48.740;22.174;2023-01-16T01:45:30;99950.53;;;4.75;83.02
50349;BME280;36250;48.740;22.174;2023-01-16T01:48:21;99951.00;;;4.72;83.12
50349;BME280;36250;48.740;22.174;2023-01-16T01:51:08;99950.34;;;4.70;83.28
50349;BME280;36250;48.740;22.174;2023-01-16T01:53:37;99943.34;;;4.69;83.36
50349;BME280;36250;48.740;22.174;2023-01-16T01:59:08;99936.75;;;4.64;83.32
50349;BME280;36250;48.740;22.174;2023-01-16T02:01:36;99937.78;;;4.63;83.53
50349;BME280;36250;48.740;22.174;2023-01-16T02:04:05;99924.94;;;4.59;83.25
50349;BME280;36250;48.740;22.174;2023-01-16T02:06:40;99922.84;;;4.61;83.11
50349;BME280;36250;48.740;22.174;2023-01-16T02:09:07;99919.34;;;4.60;83.55
50349;BME280;36250;48.740;22.174;2023-01-16T02:11:40;99920.16;;;4.61;83.07
50349;BME280;36250;48.740;22.174;2023-01-16T02:14:09;99900.03;;;4.63;83.50
50349;BME280;36250;48.740;22.174;2023-01-16T02:16:36;99894.66;;;4.63;82.89
50349;BME280;36250;48.740;22.174;2023-01-16T02:19:34;99882.19;;;4.62;83.55
50349;BME280;36250;48.740;22.174;2023-01-16T02:36:00;99898.25;;;4.51;83.49
50349;BME280;36250;48.740;22.174;2023-01-16T02:43:55;99894.31;;;4.53;83.62
50349;BME280;36250;48.740;22.174;2023-01-16T02:46:32;99898.44;;;4.56;83.90
50349;BME280;36250;48.740;22.174;2023-01-16T02:51:43;99893.47;;;4.53;83.76
50349;BME280;36250;48.740;22.174;2023-01-16T02:54:16;99885.63;;;4.51;83.60
50349;BME280;36250;48.740;22.174;2023-01-16T02:56:48;99888.91;;;4.53;83.65
50349;BME280;36250;48.740;22.174;2023-01-16T02:59:15;99882.31;;;4.49;83.40
50349;BME280;36250;48.740;22.174;2023-01-16T03:01:44;99871.53;;;4.49;83.78
50349;BME280;36250;48.740;22.174;2023-01-16T03:07:09;99866.56;;;4.46;83.95
50349;BME280;36250;48.740;22.174;2023-01-16T03:09:48;99865.38;;;4.42;83.50
50349;BME280;36250;48.740;22.174;2023-01-16T03:24:07;99845.38;;;4.50;82.98
50349;BME280;36250;48.740;22.174;2023-01-16T03:26:48;99842.06;;;4.54;83.51
50349;BME280;36250;48.740;22.174;2023-01-16T03:29:34;99836.84;;;4.59;82.97
50349;BME280;36250;48.740;22.174;2023-01-16T03:32:09;99846.78;;;4.59;83.13
50349;BME280;36250;48.740;22.174;2023-01-16T03:37:19;99843.66;;;4.62;83.00
50349;BME280;36250;48.740;22.174;2023-01-16T03:39:51;99848.22;;;4.61;83.08
50349;BME280;36250;48.740;22.174;2023-01-16T03:42:40;99845.97;;;4.58;82.80
50349;BME280;36250;48.740;22.174;2023-01-16T03:45:16;99843.44;;;4.63;83.43
50349;BME280;36250;48.740;22.174;2023-01-16T03:47:49;99828.28;;;4.62;82.35
50349;BME280;36250;48.740;22.174;2023-01-16T03:50:20;99830.81;;;4.57;83.37
50349;BME280;36250;48.740;22.174;2023-01-16T03:52:51;99825.00;;;4.60;82.64
50349;BME280;36250;48.740;22.174;2023-01-16T03:55:30;99824.56;;;4.63;83.00
50349;BME280;36250;48.740;22.174;2023-01-16T03:58:05;99817.06;;;4.65;82.26
50349;BME280;36250;48.740;22.174;2023-01-16T04:00:39;99820.44;;;4.61;83.17
50349;BME280;36250;48.740;22.174;2023-01-16T04:03:12;99809.25;;;4.57;82.72
50349;BME280;36250;48.740;22.174;2023-01-16T04:05:46;99802.66;;;4.53;83.12
50349;BME280;36250;48.740;22.174;2023-01-16T04:08:17;99803.69;;;4.52;82.76
50349;BME280;36250;48.740;22.174;2023-01-16T04:10:46;99807.66;;;4.50;83.20
50349;BME280;36250;48.740;22.174;2023-01-16T04:13:22;99804.53;;;4.53;83.84
50349;BME280;36250;48.740;22.174;2023-01-16T04:15:56;99804.34;;;4.54;83.48
50349;BME280;36250;48.740;22.174;2023-01-16T04:18:26;99810.47;;;4.61;83.04
50349;BME280;36250;48.740;22.174;2023-01-16T04:20:53;99816.72;;;4.62;83.47
50349;BME280;36250;48.740;22.174;2023-01-16T04:23:18;99814.63;;;4.64;83.43
50349;BME280;36250;48.740;22.174;2023-01-16T04:25:45;99814.63;;;4.64;83.82
50349;BME280;36250;48.740;22.174;2023-01-16T04:28:10;99809.22;;;4.64;83.11
50349;BME280;36250;48.740;22.174;2023-01-16T04:30:35;99813.19;;;4.61;83.71
50349;BME280;36250;48.740;22.174;2023-01-16T04:33:02;99817.50;;;4.62;83.22
50349;BME280;36250;48.740;22.174;2023-01-16T04:35:28;99817.91;;;4.66;83.15
50349;BME280;36250;48.740;22.174;2023-01-16T04:37:53;99807.47;;;4.70;83.17
50349;BME280;36250;48.740;22.174;2023-01-16T04:40:18;99812.88;;;4.70;83.37
50349;BME280;36250;48.740;22.174;2023-01-16T04:42:44;99804.00;;;4.69;83.42
50349;BME280;36250;48.740;22.174;2023-01-16T04:45:09;99802.56;;;4.67;83.99
50349;BME280;36250;48.740;22.174;2023-01-16T04:47:35;99796.09;;;4.68;83.46
50349;BME280;36250;48.740;22.174;2023-01-16T04:50:00;99800.22;;;4.70;83.49
50349;BME280;36250;48.740;22.174;2023-01-16T04:52:25;99801.91;;;4.71;83.26
50349;BME280;36250;48.740;22.174;2023-01-16T04:54:51;99798.38;;;4.71;83.72
50349;BME280;36250;48.740;22.174;2023-01-16T04:57:16;99791.94;;;4.72;83.77
50349;BME280;36250;48.740;22.174;2023-01-16T04:59:41;99795.44;;;4.72;83.70
50349;BME280;36250;48.740;22.174;2023-01-16T05:02:07;99800.63;;;4.74;83.85
50349;BME280;36250;48.740;22.174;2023-01-16T05:04:32;99801.06;;;4.71;84.56
50349;BME280;36250;48.740;22.174;2023-01-16T05:06:57;99803.75;;;4.71;83.76
50349;BME280;36250;48.740;22.174;2023-01-16T05:09:23;99807.28;;;4.71;84.62
50349;BME280;36250;48.740;22.174;2023-01-16T05:11:48;99803.75;;;4.71;85.07
50349;BME280;36250;48.740;22.174;2023-01-16T05:14:13;99807.88;;;4.73;84.93
50349;BME280;36250;48.740;22.174;2023-01-16T05:16:39;99794.16;;;4.75;84.37
50349;BME280;36250;48.740;22.174;2023-01-16T05:19:07;99792.31;;;4.75;85.01
50349;BME280;36250;48.740;22.174;2023-01-16T05:21:33;99793.72;;;4.78;84.65
50349;BME280;36250;48.740;22.174;2023-01-16T05:23:58;99783.53;;;4.80;85.46
50349;BME280;36250;48.740;22.174;2023-01-16T05:26:24;99776.28;;;4.80;84.54
50349;BME280;36250;48.740;22.174;2023-01-16T05:28:49;99775.44;;;4.80;84.97
50349;BME280;36250;48.740;22.174;2023-01-16T05:31:15;99761.97;;;4.80;85.68
50349;BME280;36250;48.740;22.174;2023-01-16T05:33:40;99759.28;;;4.80;84.84
50349;BME280;36250;48.740;22.174;2023-01-16T05:36:06;99751.81;;;4.82;85.04
50349;BME280;36250;48.740;22.174;2023-01-16T05:38:31;99745.34;;;4.83;85.92
50349;BME280;36250;48.740;22.174;2023-01-16T05:40:57;99748.88;;;4.83;85.47
50349;BME280;36250;48.740;22.174;2023-01-16T05:43:22;99745.75;;;4.86;85.70
50349;BME280;36250;48.740;22.174;2023-01-16T05:45:47;99749.72;;;4.84;85.30
50349;BME280;36250;48.740;22.174;2023-01-16T05:48:13;99749.25;;;4.87;85.50
50349;BME280;36250;48.740;22.174;2023-01-16T05:50:38;99748.78;;;4.90;85.33
50349;BME280;36250;48.740;22.174;2023-01-16T05:53:04;99753.75;;;4.93;85.29
50349;BME280;36250;48.740;22.174;2023-01-16T05:55:29;99749.09;;;5.00;85.98
50349;BME280;36250;48.740;22.174;2023-01-16T05:57:55;99737.88;;;5.03;85.75
50349;BME280;36250;48.740;22.174;2023-01-16T06:00:20;99736.59;;;5.05;85.05
50349;BME280;36250;48.740;22.174;2023-01-16T06:02:45;99720.19;;;5.07;85.66
50349;BME280;36250;48.740;22.174;2023-01-16T06:05:14;99714.94;;;5.12;85.59
50349;BME280;36250;48.740;22.174;2023-01-16T06:07:40;99705.41;;;5.09;84.51
50349;BME280;36250;48.740;22.174;2023-01-16T06:10:08;99693.59;;;5.10;85.43
50349;BME280;36250;48.740;22.174;2023-01-16T06:12:33;99689.03;;;5.11;84.90
50349;BME280;36250;48.740;22.174;2023-01-16T06:14:59;99692.31;;;5.13;85.02
50349;BME280;36250;48.740;22.174;2023-01-16T06:17:24;99691.09;;;5.09;84.39
50349;BME280;36250;48.740;22.174;2023-01-16T06:19:49;99685.94;;;5.07;84.83
50349;BME280;36250;48.740;22.174;2023-01-16T06:22:15;99696.81;;;5.01;84.59
50349;BME280;36250;48.740;22.174;2023-01-16T06:24:41;99696.44;;;4.97;84.41
50349;BME280;36250;48.740;22.174;2023-01-16T06:27:06;99693.97;;;4.96;85.19
50349;BME280;36250;48.740;22.174;2023-01-16T06:29:32;99701.47;;;4.94;85.22
50349;BME280;36250;48.740;22.174;2023-01-16T06:31:57;99708.94;;;4.92;85.05
50349;BME280;36250;48.740;22.174;2023-01-16T06:34:23;99713.06;;;4.94;84.67
50349;BME280;36250;48.740;22.174;2023-01-16T06:36:48;99712.25;;;4.94;84.90
50349;BME280;36250;48.740;22.174;2023-01-16T06:39:15;99706.41;;;4.97;84.89
50349;BME280;36250;48.740;22.174;2023-01-16T06:41:40;99702.66;;;4.98;84.66
50349;BME280;36250;48.740;22.174;2023-01-16T06:44:06;99706.19;;;4.98;85.45
50349;BME280;36250;48.740;22.174;2023-01-16T06:46:32;99705.50;;;5.03;84.80
50349;BME280;36250;48.740;22.174;2023-01-16T06:48:57;99704.44;;;5.04;84.86
50349;BME280;36250;48.740;22.174;2023-01-16T06:51:22;99706.09;;;5.05;85.02
50349;BME280;36250;48.740;22.174;2023-01-16T06:53:48;99702.56;;;5.04;84.44
50349;BME280;36250;48.740;22.174;2023-01-16T06:56:13;99701.75;;;5.04;85.06
50349;BME280;36250;48.740;22.174;2023-01-16T06:58:39;99702.38;;;5.06;84.13
50349;BME280;36250;48.740;22.174;2023-01-16T07:01:04;99706.69;;;5.07;84.74
50349;BME280;36250;48.740;22.174;2023-01-16T07:03:30;99710.44;;;5.06;84.71
50349;BME280;36250;48.740;22.174;2023-01-16T07:05:56;99706.47;;;5.08;84.99
50349;BME280;36250;48.740;22.174;2023-01-16T07:08:21;99710.59;;;5.11;84.20
50349;BME280;36250;48.740;22.174;2023-01-16T07:10:46;99715.38;;;5.09;84.68
50349;BME280;36250;48.740;22.174;2023-01-16T07:13:12;99714.94;;;5.12;83.95
50349;BME280;36250;48.740;22.174;2023-01-16T07:15:37;99716.78;;;5.11;83.91
50349;BME280;36250;48.740;22.174;2023-01-16T07:18:21;99712.22;;;5.12;84.37
50349;BME280;36250;48.740;22.174;2023-01-16T07:21:11;99709.69;;;5.17;84.25
50349;BME280;36250;48.740;22.174;2023-01-16T07:24:07;99713.66;;;5.14;84.06
50349;BME280;36250;48.740;22.174;2023-01-16T07:26:36;99709.91;;;5.15;84.97
50349;BME280;36250;48.740;22.174;2023-01-16T07:29:02;99704.53;;;5.15;84.69
50349;BME280;36250;48.740;22.174;2023-01-16T07:31:29;99702.84;;;5.14;84.84
50349;BME280;36250;48.740;22.174;2023-01-16T07:33:56;99696.28;;;5.10;84.68
50349;BME280;36250;48.740;22.174;2023-01-16T07:36:21;99708.78;;;5.05;84.66
50349;BME280;36250;48.740;22.174;2023-01-16T07:38:47;99707.97;;;5.04;85.01
50349;BME280;36250;48.740;22.174;2023-01-16T07:41:12;99701.28;;;5.07;85.31
50349;BME280;36250;48.740;22.174;2023-01-16T07:43:39;99691.78;;;5.04;85.49
50349;BME280;36250;48.740;22.174;2023-01-16T07:46:04;99684.97;;;5.02;85.59
50349;BME280;36250;48.740;22.174;2023-01-16T07:48:30;99682.84;;;5.04;85.50
50349;BME280;36250;48.740;22.174;2023-01-16T07:50:57;99684.53;;;5.05;86.22
50349;BME280;36250;48.740;22.174;2023-01-16T07:53:25;99679.72;;;5.07;85.65
50349;BME280;36250;48.740;22.174;2023-01-16T07:55:53;99673.88;;;5.10;85.81
50349;BME280;36250;48.740;22.174;2023-01-16T07:58:19;99666.38;;;5.12;85.88
50349;BME280;36250;48.740;22.174;2023-01-16T08:00:46;99668.38;;;5.16;86.10
50349;BME280;36250;48.740;22.174;2023-01-16T08:03:12;99661.72;;;5.19;86.12
50349;BME280;36250;48.740;22.174;2023-01-16T08:05:39;99663.81;;;5.17;85.86
50349;BME280;36250;48.740;22.174;2023-01-16T08:08:05;99652.19;;;5.16;85.30
50349;BME280;36250;48.740;22.174;2023-01-16T08:10:30;99641.41;;;5.16;85.94
50349;BME280;36250;48.740;22.174;2023-01-16T08:12:55;99646.00;;;5.16;85.84
50349;BME280;36250;48.740;22.174;2023-01-16T08:15:21;99639.69;;;5.22;85.56
50349;BME280;36250;48.740;22.174;2023-01-16T08:17:46;99636.72;;;5.23;85.31
50349;BME280;36250;48.740;22.174;2023-01-16T08:20:12;99639.69;;;5.22;85.18
50349;BME280;36250;48.740;22.174;2023-01-16T08:22:47;99637.22;;;5.20;85.94
50349;BME280;36250;48.740;22.174;2023-01-16T08:25:17;99635.81;;;5.18;85.31
50349;BME280;36250;48.740;22.174;2023-01-16T08:27:43;99633.56;;;5.15;85.49
50349;BME280;36250;48.740;22.174;2023-01-16T08:30:09;99632.97;;;5.13;85.90
50349;BME280;36250;48.740;22.174;2023-01-16T08:32:34;99636.84;;;5.17;85.24
50349;BME280;36250;48.740;22.174;2023-01-16T08:35:00;99635.22;;;5.16;85.21
50349;BME280;36250;48.740;22.174;2023-01-16T08:37:25;99640.59;;;5.16;86.17
50349;BME280;36250;48.740;22.174;2023-01-16T08:39:51;99632.88;;;5.19;86.07
50349;BME280;36250;48.740;22.174;2023-01-16T08:42:16;99629.34;;;5.19;85.66
50349;BME280;36250;48.740;22.174;2023-01-16T08:45:00;99632.03;;;5.19;85.13
50349;BME280;36250;48.740;22.174;2023-01-16T08:47:44;99614.22;;;5.18;84.91
50349;BME280;36250;48.740;22.174;2023-01-16T08:50:28;99609.16;;;5.21;85.35
50349;BME280;36250;48.740;22.174;2023-01-16T08:53:11;99606.72;;;5.20;85.45
50349;BME280;36250;48.740;22.174;2023-01-16T08:55:37;99614.81;;;5.20;85.00
50349;BME280;36250;48.740;22.174;2023-01-16T08:58:04;99614.22;;;5.18;85.14
50349;BME280;36250;48.740;22.174;2023-01-16T09:00:30;99613.16;;;5.19;85.18
50349;BME280;36250;48.740;22.174;2023-01-16T09:02:55;99610.59;;;5.24;85.52
50349;BME280;36250;48.740;22.174;2023-01-16T09:05:23;99606.59;;;5.26;84.83
50349;BME280;36250;48.740;22.174;2023-01-16T09:07:49;99607.19;;;5.28;85.09
50349;BME280;36250;48.740;22.174;2023-01-16T09:10:14;99602.63;;;5.29;84.83
50349;BME280;36250;48.740;22.174;2023-01-16T09:12:40;99600.88;;;5.35;84.99
50349;BME280;36250;48.740;22.174;2023-01-16T09:15:24;99593.75;;;5.40;84.25
50349;BME280;36250;48.740;22.174;2023-01-16T09:17:49;99591.19;;;5.45;84.92
50349;BME280;36250;48.740;22.174;2023-01-16T09:20:15;99586.38;;;5.47;84.48
50349;BME280;36250;48.740;22.174;2023-01-16T09:22:40;99587.41;;;5.46;84.06
50349;BME280;36250;48.740;22.174;2023-01-16T09:25:06;99589.91;;;5.48;84.20
50349;BME280;36250;48.740;22.174;2023-01-16T09:27:31;99584.84;;;5.51;84.37
50349;BME280;36250;48.740;22.174;2023-01-16T09:29:57;99577.56;;;5.52;83.89
50349;BME280;36250;48.740;22.174;2023-01-16T09:32:22;99579.31;;;5.58;84.29
50349;BME280;36250;48.740;22.174;2023-01-16T09:34:47;99570.19;;;5.59;84.13
50349;BME280;36250;48.740;22.174;2023-01-16T09:37:13;99578.88;;;5.61;84.14
50349;BME280;36250;48.740;22.174;2023-01-16T09:39:39;99570.19;;;5.59;84.25
50349;BME280;36250;48.740;22.174;2023-01-16T09:45:13;99567.03;;;5.62;83.73
50349;BME280;36250;48.740;22.174;2023-01-16T09:47:43;99558.09;;;5.61;84.14
50349;BME280;36250;48.740;22.174;2023-01-16T09:50:15;99549.53;;;5.64;83.46
50349;BME280;36250;48.740;22.174;2023-01-16T09:52:47;99545.31;;;5.68;83.49
50349;BME280;36250;48.740;22.174;2023-01-16T09:58:20;99538.38;;;5.72;83.62
50349;BME280;36250;48.740;22.174;2023-01-16T10:01:18;99538.84;;;5.69;83.57
50349;BME280;36250;48.740;22.174;2023-01-16T10:03:44;99518.88;;;5.70;83.64
50349;BME280;36250;48.740;22.174;2023-01-16T10:09:00;99514.56;;;5.69;83.62
50349;BME280;36250;48.740;22.174;2023-01-16T10:22:17;99496.44;;;5.70;83.65
50349;BME280;36250;48.740;22.174;2023-01-16T10:25:21;99498.47;;;5.74;84.05
50349;BME280;36250;48.740;22.174;2023-01-16T10:32:57;99484.38;;;5.84;83.65
50349;BME280;36250;48.740;22.174;2023-01-16T10:35:29;99474.19;;;5.86;83.90
50349;BME280;36250;48.740;22.174;2023-01-16T10:38:02;99474.28;;;5.91;83.04
50349;BME280;36250;48.740;22.174;2023-01-16T10:40:31;99472.41;;;5.91;83.33
50349;BME280;36250;48.740;22.174;2023-01-16T10:43:05;99469.72;;;5.91;83.88
50349;BME280;36250;48.740;22.174;2023-01-16T10:45:55;99462.78;;;5.95;83.38
50349;BME280;36250;48.740;22.174;2023-01-16T10:48:39;99457.63;;;5.94;83.11
50349;BME280;36250;48.740;22.174;2023-01-16T10:51:23;99451.13;;;5.95;82.81
50349;BME280;36250;48.740;22.174;2023-01-16T10:53:49;99444.69;;;5.96;83.03
50349;BME280;36250;48.740;22.174;2023-01-16T10:56:14;99439.03;;;5.97;82.20
50349;BME280;36250;48.740;22.174;2023-01-16T10:58:39;99435.28;;;5.99;82.86
50349;BME280;36250;48.740;22.174;2023-01-16T11:01:11;99419.91;;;5.99;81.84
50349;BME280;36250;48.740;22.174;2023-01-16T11:03:40;99416.50;;;5.92;81.78
50349;BME280;36250;48.740;22.174;2023-01-16T11:08:35;99392.69;;;5.89;81.90
50349;BME280;36250;48.740;22.174;2023-01-16T11:11:00;99385.63;;;5.88;82.37
50349;BME280;36250;48.740;22.174;2023-01-16T11:13:27;99385.16;;;5.91;82.33
50349;BME280;36250;48.740;22.174;2023-01-16T11:18:59;99375.19;;;5.91;81.33
50349;BME280;36250;48.740;22.174;2023-01-16T11:21:31;99361.44;;;5.93;81.45
50349;BME280;36250;48.740;22.174;2023-01-16T11:24:43;99353.69;;;5.97;81.19
50349;BME280;36250;48.740;22.174;2023-01-16T11:26:48;99348.03;;;5.98;81.04
50349;BME280;36250;48.740;22.174;2023-01-16T11:29:16;99343.44;;;5.99;81.58
50349;BME280;36250;48.740;22.174;2023-01-16T11:31:47;99339.09;;;5.97;81.27
50349;BME280;36250;48.740;22.174;2023-01-16T11:34:13;99339.34;;;5.96;81.69
50349;BME280;36250;48.740;22.174;2023-01-16T11:36:40;99326.06;;;5.94;82.01
50349;BME280;36250;48.740;22.174;2023-01-16T11:39:17;99324.78;;;5.97;81.51
50349;BME280;36250;48.740;22.174;2023-01-16T11:41:48;99314.31;;;6.01;81.84
50349;BME280;36250;48.740;22.174;2023-01-16T11:44:28;99320.19;;;5.97;81.24
50349;BME280;36250;48.740;22.174;2023-01-16T11:47:16;99311.50;;;5.95;81.36
50349;BME280;36250;48.740;22.174;2023-01-16T11:49:47;99308.81;;;5.95;80.80
50349;BME280;36250;48.740;22.174;2023-01-16T11:52:34;99305.06;;;5.97;80.95
50349;BME280;36250;48.740;22.174;2023-01-16T11:55:03;99299.66;;;5.97;81.24
50349;BME280;36250;48.740;22.174;2023-01-16T11:57:38;99301.84;;;6.00;81.23
50349;BME280;36250;48.740;22.174;2023-01-16T12:03:21;99284.03;;;5.99;81.33
50349;BME280;36250;48.740;22.174;2023-01-16T12:06:33;99280.25;;;6.00;81.70
50349;BME280;36250;48.740;22.174;2023-01-16T12:14:45;99253.16;;;5.94;82.06
50349;BME280;36250;48.740;22.174;2023-01-16T12:17:32;99251.53;;;5.93;82.21
50349;BME280;36250;48.740;22.174;2023-01-16T12:20:09;99250.69;;;5.93;82.45
50349;BME280;36250;48.740;22.174;2023-01-16T12:22:56;99247.19;;;5.92;82.13
50349;BME280;36250;48.740;22.174;2023-01-16T12:37:02;99224.66;;;5.87;82.65
50349;BME280;36250;48.740;22.174;2023-01-16T12:39:51;99211.16;;;5.87;82.29
50349;BME280;36250;48.740;22.174;2023-01-16T12:45:44;99200.00;;;5.83;81.82
50349;BME280;36250;48.740;22.174;2023-01-16T12:59:14;99196.75;;;5.81;81.59
50349;BME280;36250;48.740;22.174;2023-01-16T13:01:43;99197.44;;;5.88;81.55
50349;BME280;36250;48.740;22.174;2023-01-16T13:04:20;99188.25;;;5.89;81.71
50349;BME280;36250;48.740;22.174;2023-01-16T13:06:50;99178.03;;;5.91;82.55
50349;BME280;36250;48.740;22.174;2023-01-16T13:09:32;99177.88;;;5.98;82.26
50349;BME280;36250;48.740;22.174;2023-01-16T13:14:56;99170.25;;;6.12;81.88
50349;BME280;36250;48.740;22.174;2023-01-16T13:17:26;99164.91;;;6.17;81.48
50349;BME280;36250;48.740;22.174;2023-01-16T13:20:00;99160.41;;;6.22;81.60
50349;BME280;36250;48.740;22.174;2023-01-16T13:22:51;99156.97;;;6.27;81.06
50349;BME280;36250;48.740;22.174;2023-01-16T13:25:26;99155.16;;;6.32;80.75
50349;BME280;36250;48.740;22.174;2023-01-16T13:27:59;99146.56;;;6.35;80.53
50349;BME280;36250;48.740;22.174;2023-01-16T13:30:26;99152.28;;;6.39;80.12
50349;BME280;36250;48.740;22.174;2023-01-16T13:32:55;99137.72;;;6.40;80.07
50349;BME280;36250;48.740;22.174;2023-01-16T13:35:32;99130.44;;;6.40;79.85
50349;BME280;36250;48.740;22.174;2023-01-16T13:38:12;99122.06;;;6.42;79.49
50349;BME280;36250;48.740;22.174;2023-01-16T13:43:36;99117.16;;;6.39;79.16
50349;BME280;36250;48.740;22.174;2023-01-16T13:46:22;99109.41;;;6.26;79.79
50349;BME280;36250;48.740;22.174;2023-01-16T13:48:58;99110.72;;;6.23;79.63
50349;BME280;36250;48.740;22.174;2023-01-16T13:51:24;99096.38;;;6.23;79.77
50349;BME280;36250;48.740;22.174;2023-01-16T13:53:54;99100.47;;;6.25;79.51
50349;BME280;36250;48.740;22.174;2023-01-16T13:56:24;99106.19;;;6.29;79.80
50349;BME280;36250;48.740;22.174;2023-01-16T13:59:03;99088.66;;;6.31;79.24
50349;BME280;36250;48.740;22.174;2023-01-16T14:01:52;99087.13;;;6.35;79.16
50349;BME280;36250;48.740;22.174;2023-01-16T14:06:48;99079.00;;;6.35;78.78
50349;BME280;36250;48.740;22.174;2023-01-16T14:17:21;99043.59;;;6.37;79.49
50349;BME280;36250;48.740;22.174;2023-01-16T14:19:52;99040.91;;;6.37;78.65
50349;BME280;36250;48.740;22.174;2023-01-16T14:22:21;99036.56;;;6.36;78.76
50349;BME280;36250;48.740;22.174;2023-01-16T14:24:51;99027.41;;;6.37;78.88
50349;BME280;36250;48.740;22.174;2023-01-16T14:27:20;99009.88;;;6.39;78.68
50349;BME280;36250;48.740;22.174;2023-01-16T14:29:52;99006.34;;;6.39;77.97
50349;BME280;36250;48.740;22.174;2023-01-16T14:32:25;99001.69;;;6.34;78.62
50349;BME280;36250;48.740;22.174;2023-01-16T14:34:55;98996.00;;;6.31;78.12
50349;BME280;36250;48.740;22.174;2023-01-16T14:37:27;98998.09;;;6.29;78.60
50349;BME280;36250;48.740;22.174;2023-01-16T14:42:47;98973.03;;;6.12;79.25
50349;BME280;36250;48.740;22.174;2023-01-16T14:45:33;98977.88;;;6.10;79.38
50349;BME280;36250;48.740;22.174;2023-01-16T14:54:07;98955.44;;;5.87;79.31
50349;BME280;36250;48.740;22.174;2023-01-16T14:57:02;98957.47;;;5.80;79.72
50349;BME280;36250;48.740;22.174;2023-01-16T14:59:35;98944.06;;;5.85;79.95
50349;BME280;36250;48.740;22.174;2023-01-16T15:02:23;98932.78;;;5.88;80.26
50349;BME280;36250;48.740;22.174;2023-01-16T15:05:04;98944.72;;;5.92;79.92
50349;BME280;36250;48.740;22.174;2023-01-16T15:07:58;98939.94;;;6.00;79.32
50349;BME280;36250;48.740;22.174;2023-01-16T15:10:39;98948.38;;;6.03;79.72
50349;BME280;36250;48.740;22.174;2023-01-16T15:13:14;98941.88;;;6.04;79.25
50349;BME280;36250;48.740;22.174;2023-01-16T15:15:42;98931.06;;;6.04;78.89
50349;BME280;36250;48.740;22.174;2023-01-16T15:18:13;98931.06;;;6.04;78.44
50349;BME280;36250;48.740;22.174;2023-01-16T15:20:59;98924.06;;;6.03;79.00
50349;BME280;36250;48.740;22.174;2023-01-16T15:23:44;98914.06;;;6.04;79.61
50349;BME280;36250;48.740;22.174;2023-01-16T15:28:43;98913.03;;;6.10;78.85
50349;BME280;36250;48.740;22.174;2023-01-16T15:31:17;98904.38;;;6.08;78.87